UAE189 OMDB-LIRF
Flight info
| Callsign | UAE189 |
|---|---|
| Flight time | N/A |
| Altitude | 36000 |
| Route | RIDAP M557 TUMAK L602 ALPET L718 KABAN UL718 ULSAB UG8 YAA UG12 EKI/N0481F380 UG12 GOLDO UN79 PINDO DCT PAPIZ DCT EKTOL DCT AMSOR DCT IPKAM DCT TEA/N0427F180 Z803 LAT |
| Aircraft | B77W/H-SDE1E2E3FGHIJ2J3J4J5M1RWXY/LB1D1 |
Departure
| Time | 2026-05-05 22:59 |
|---|---|
| Airport | Dubai International Airport (OMDB) |
Arrival
| Time | N/A |
|---|---|
| Airport | Rome–Fiumicino Leonardo da Vinci International Airport (LIRF) |
| Time | Latitude | Longitude | Altitude | Speed | Heading |
|---|---|---|---|---|---|
| 2026-05-05 22:15 | 25.24881 | 55.36295 | 26 ft | 0 kts | 211° |
| 2026-05-05 22:44 | 25.24900 | 55.36308 | 32 ft | 4 kts | 211° |
| 2026-05-05 22:44 | 25.24923 | 55.36324 | 32 ft | 3 kts | 211° |
| 2026-05-05 22:44 | 25.24942 | 55.36335 | 32 ft | 4 kts | 192° |
| 2026-05-05 22:45 | 25.24967 | 55.36334 | 32 ft | 4 kts | 151° |
| 2026-05-05 22:45 | 25.24985 | 55.36316 | 30 ft | 4 kts | 122° |
| 2026-05-05 22:45 | 25.24999 | 55.36291 | 32 ft | 4 kts | 122° |
| 2026-05-05 22:45 | 25.25011 | 55.36269 | 32 ft | 1 kts | 122° |
| 2026-05-05 22:46 | 25.25012 | 55.36269 | 32 ft | 0 kts | 122° |
| 2026-05-05 22:50 | 25.25011 | 55.36270 | 26 ft | 1 kts | 122° |
| 2026-05-05 22:50 | 25.25000 | 55.36290 | 30 ft | 5 kts | 122° |
| 2026-05-05 22:51 | 25.24974 | 55.36335 | 31 ft | 9 kts | 122° |
| 2026-05-05 22:51 | 25.24940 | 55.36395 | 30 ft | 9 kts | 122° |
| 2026-05-05 22:51 | 25.24905 | 55.36458 | 31 ft | 11 kts | 122° |
| 2026-05-05 22:51 | 25.24865 | 55.36530 | 30 ft | 11 kts | 122° |
| 2026-05-05 22:52 | 25.24825 | 55.36602 | 29 ft | 11 kts | 118° |
| 2026-05-05 22:52 | 25.24793 | 55.36683 | 30 ft | 13 kts | 109° |
| 2026-05-05 22:52 | 25.24772 | 55.36784 | 26 ft | 14 kts | 102° |
| 2026-05-05 22:52 | 25.24735 | 55.36880 | 30 ft | 14 kts | 121° |
| 2026-05-05 22:53 | 25.24684 | 55.36970 | 31 ft | 14 kts | 122° |
| 2026-05-05 22:53 | 25.24633 | 55.37060 | 29 ft | 14 kts | 122° |
| 2026-05-05 22:53 | 25.24583 | 55.37149 | 30 ft | 14 kts | 122° |
| 2026-05-05 22:53 | 25.24533 | 55.37239 | 28 ft | 14 kts | 122° |
| 2026-05-05 22:54 | 25.24482 | 55.37329 | 29 ft | 14 kts | 122° |
| 2026-05-05 22:54 | 25.24432 | 55.37418 | 31 ft | 14 kts | 122° |
| 2026-05-05 22:54 | 25.24382 | 55.37508 | 29 ft | 14 kts | 122° |
| 2026-05-05 22:54 | 25.24332 | 55.37596 | 30 ft | 14 kts | 122° |
| 2026-05-05 22:55 | 25.24283 | 55.37684 | 26 ft | 12 kts | 122° |
| 2026-05-05 22:55 | 25.24264 | 55.37757 | 29 ft | 10 kts | 72° |
| 2026-05-05 22:55 | 25.24311 | 55.37807 | 26 ft | 9 kts | 34° |
| 2026-05-05 22:55 | 25.24349 | 55.37835 | 27 ft | 6 kts | 34° |
| 2026-05-05 22:56 | 25.24388 | 55.37865 | 27 ft | 8 kts | 34° |
| 2026-05-05 22:56 | 25.24443 | 55.37906 | 29 ft | 10 kts | 34° |
| 2026-05-05 22:56 | 25.24500 | 55.37950 | 30 ft | 10 kts | 34° |
| 2026-05-05 22:56 | 25.24560 | 55.37995 | 28 ft | 11 kts | 34° |
| 2026-05-05 22:57 | 25.24626 | 55.38043 | 28 ft | 11 kts | 32° |
| 2026-05-05 22:57 | 25.24693 | 55.38088 | 30 ft | 11 kts | 31° |
| 2026-05-05 22:57 | 25.24741 | 55.38115 | 31 ft | 6 kts | 7° |
| 2026-05-05 22:57 | 25.24773 | 55.38085 | 31 ft | 6 kts | 302° |
| 2026-05-05 22:58 | 25.24777 | 55.38077 | 30 ft | 0 kts | 301° |
| 2026-05-05 22:58 | 25.24815 | 55.38008 | 30 ft | 34 kts | 301° |
| 2026-05-05 22:58 | 25.25079 | 55.37534 | 32 ft | 109 kts | 301° |
| 2026-05-05 22:58 | 25.25595 | 55.36604 | 30 ft | 172 kts | 302° |
| 2026-05-05 22:59 | 25.26288 | 55.35355 | 253 ft | 199 kts | 302° |
| 2026-05-05 22:59 | 25.27052 | 55.34022 | 718 ft | 213 kts | 303° |
| 2026-05-05 22:59 | 25.27836 | 55.32616 | 1316 ft | 216 kts | 301° |
| 2026-05-05 22:59 | 25.28597 | 55.31171 | 1845 ft | 220 kts | 302° |
| 2026-05-05 23:00 | 25.30280 | 55.28208 | 2753 ft | 237 kts | 307° |
| 2026-05-05 23:00 | 25.31260 | 55.26709 | 3245 ft | 244 kts | 307° |
| 2026-05-05 23:00 | 25.32281 | 55.25171 | 3750 ft | 252 kts | 308° |
| 2026-05-05 23:01 | 25.33325 | 55.23583 | 4347 ft | 258 kts | 307° |
| 2026-05-05 23:01 | 25.34381 | 55.21934 | 4892 ft | 267 kts | 307° |
| 2026-05-05 23:01 | 25.35437 | 55.20218 | 5497 ft | 270 kts | 300° |
| 2026-05-05 23:01 | 25.35941 | 55.18188 | 6012 ft | 281 kts | 272° |
| 2026-05-05 23:02 | 25.35863 | 55.16012 | 6617 ft | 286 kts | 268° |
| 2026-05-05 23:02 | 25.35749 | 55.13831 | 7250 ft | 290 kts | 268° |
| 2026-05-05 23:02 | 25.35637 | 55.11592 | 7914 ft | 293 kts | 268° |
| 2026-05-05 23:02 | 25.35534 | 55.09335 | 8603 ft | 295 kts | 268° |
| 2026-05-05 23:03 | 25.35439 | 55.07056 | 9287 ft | 298 kts | 268° |
| 2026-05-05 23:03 | 25.35349 | 55.04756 | 9937 ft | 301 kts | 268° |
| 2026-05-05 23:03 | 25.35260 | 55.02416 | 10444 ft | 312 kts | 268° |
| 2026-05-05 23:03 | 25.35168 | 54.99931 | 10608 ft | 335 kts | 268° |
| 2026-05-05 23:04 | 25.35071 | 54.97269 | 10781 ft | 358 kts | 268° |
| 2026-05-05 23:04 | 25.34967 | 54.94434 | 10995 ft | 379 kts | 268° |
| 2026-05-05 23:04 | 25.34874 | 54.91488 | 11464 ft | 385 kts | 271° |
| 2026-05-05 23:04 | 25.35287 | 54.88551 | 11851 ft | 389 kts | 288° |
| 2026-05-05 23:05 | 25.36198 | 54.85700 | 12480 ft | 396 kts | 290° |
| 2026-05-05 23:05 | 25.37098 | 54.82819 | 13320 ft | 399 kts | 289° |
| 2026-05-05 23:05 | 25.37970 | 54.79890 | 14033 ft | 403 kts | 288° |
| 2026-05-05 23:05 | 25.38260 | 54.78892 | 14278 ft | 404 kts | 288° |
| 2026-05-05 23:06 | 25.39673 | 54.73952 | 15526 ft | 407 kts | 288° |
| 2026-05-05 23:06 | 25.40525 | 54.70960 | 16261 ft | 410 kts | 288° |
| 2026-05-05 23:06 | 25.41394 | 54.67946 | 16956 ft | 413 kts | 288° |
| 2026-05-05 23:06 | 25.42276 | 54.64899 | 17652 ft | 417 kts | 288° |
| 2026-05-05 23:07 | 25.43163 | 54.61832 | 18316 ft | 420 kts | 288° |
| 2026-05-05 23:07 | 25.44051 | 54.58787 | 18935 ft | 422 kts | 288° |
| 2026-05-05 23:07 | 25.44963 | 54.55686 | 19576 ft | 425 kts | 288° |
| 2026-05-05 23:07 | 25.45881 | 54.52573 | 20211 ft | 427 kts | 288° |
| 2026-05-05 23:08 | 25.46804 | 54.49441 | 20837 ft | 430 kts | 288° |
| 2026-05-05 23:08 | 25.47731 | 54.46286 | 21424 ft | 433 kts | 288° |
| 2026-05-05 23:08 | 25.48665 | 54.43102 | 22023 ft | 436 kts | 287° |
| 2026-05-05 23:08 | 25.49603 | 54.39902 | 22629 ft | 439 kts | 287° |
| 2026-05-05 23:09 | 25.50546 | 54.36676 | 23214 ft | 441 kts | 287° |
| 2026-05-05 23:09 | 25.51496 | 54.33427 | 23714 ft | 444 kts | 287° |
| 2026-05-05 23:09 | 25.52448 | 54.30168 | 24215 ft | 445 kts | 287° |
| 2026-05-05 23:09 | 25.53403 | 54.26895 | 24731 ft | 446 kts | 287° |
| 2026-05-05 23:10 | 25.54358 | 54.23622 | 25230 ft | 448 kts | 287° |
| 2026-05-05 23:10 | 25.55326 | 54.20339 | 25694 ft | 450 kts | 287° |
| 2026-05-05 23:10 | 25.56303 | 54.17042 | 26149 ft | 452 kts | 287° |
| 2026-05-05 23:10 | 25.57286 | 54.13725 | 26609 ft | 454 kts | 287° |
| 2026-05-05 23:11 | 25.58270 | 54.10399 | 27071 ft | 455 kts | 287° |
| 2026-05-05 23:11 | 25.59256 | 54.07055 | 27508 ft | 457 kts | 287° |
| 2026-05-05 23:11 | 25.60230 | 54.03697 | 27928 ft | 459 kts | 286° |
| 2026-05-05 23:11 | 25.61189 | 54.00320 | 28329 ft | 461 kts | 286° |
| 2026-05-05 23:12 | 25.62148 | 53.96921 | 28692 ft | 463 kts | 285° |
| 2026-05-05 23:12 | 25.63108 | 53.93512 | 29076 ft | 464 kts | 285° |
| 2026-05-05 23:12 | 25.64071 | 53.90103 | 29523 ft | 463 kts | 285° |
| 2026-05-05 23:12 | 25.65034 | 53.86692 | 29857 ft | 464 kts | 285° |
| 2026-05-05 23:13 | 25.66000 | 53.83276 | 30160 ft | 465 kts | 285° |
| 2026-05-05 23:13 | 25.66967 | 53.79856 | 30490 ft | 465 kts | 285° |
| 2026-05-05 23:13 | 25.67930 | 53.76446 | 30882 ft | 463 kts | 285° |
| 2026-05-05 23:13 | 25.68888 | 53.73049 | 31291 ft | 460 kts | 285° |
| 2026-05-05 23:14 | 25.69841 | 53.69666 | 31675 ft | 458 kts | 284° |
| 2026-05-05 23:14 | 25.70774 | 53.66344 | 32039 ft | 457 kts | 284° |
| 2026-05-05 23:14 | 25.71717 | 53.62983 | 32407 ft | 456 kts | 284° |
| 2026-05-05 23:14 | 25.72657 | 53.59631 | 32784 ft | 454 kts | 284° |
| 2026-05-05 23:15 | 25.73591 | 53.56296 | 33166 ft | 452 kts | 284° |
| 2026-05-05 23:15 | 25.74522 | 53.52974 | 33523 ft | 451 kts | 284° |
| 2026-05-05 23:15 | 25.75450 | 53.49657 | 33879 ft | 449 kts | 284° |
| 2026-05-05 23:15 | 25.76379 | 53.46365 | 34231 ft | 446 kts | 284° |
| 2026-05-05 23:16 | 25.77308 | 53.43084 | 34530 ft | 445 kts | 284° |
| 2026-05-05 23:16 | 25.78234 | 53.39811 | 34768 ft | 445 kts | 284° |
| 2026-05-05 23:16 | 25.79159 | 53.36535 | 35003 ft | 445 kts | 284° |
| 2026-05-05 23:16 | 25.80081 | 53.33263 | 35255 ft | 444 kts | 283° |
| 2026-05-05 23:17 | 25.81000 | 53.30000 | 35521 ft | 443 kts | 283° |
| 2026-05-05 23:17 | 25.81916 | 53.26738 | 35669 ft | 444 kts | 283° |
| 2026-05-05 23:17 | 25.83765 | 53.20164 | 35754 ft | 447 kts | 284° |
| 2026-05-05 23:18 | 25.86132 | 53.13723 | 35767 ft | 452 kts | 290° |
| 2026-05-05 23:18 | 25.88738 | 53.07407 | 35759 ft | 453 kts | 290° |
| 2026-05-05 23:19 | 25.91340 | 53.01033 | 35759 ft | 453 kts | 290° |
| 2026-05-05 23:19 | 25.93930 | 52.94644 | 35752 ft | 453 kts | 290° |
| 2026-05-05 23:20 | 25.96513 | 52.88255 | 35756 ft | 453 kts | 290° |
| 2026-05-05 23:20 | 25.99089 | 52.81875 | 35755 ft | 452 kts | 290° |
| 2026-05-05 23:21 | 26.01661 | 52.75499 | 35756 ft | 452 kts | 290° |
| 2026-05-05 23:21 | 26.04392 | 52.69194 | 35763 ft | 453 kts | 292° |
| 2026-05-05 23:22 | 26.07272 | 52.62956 | 35754 ft | 453 kts | 292° |
| 2026-05-05 23:22 | 26.10083 | 52.56746 | 35755 ft | 452 kts | 291° |
| 2026-05-05 23:23 | 26.12895 | 52.50492 | 35747 ft | 452 kts | 291° |
| 2026-05-05 23:23 | 26.15729 | 52.44247 | 35759 ft | 452 kts | 291° |
| 2026-05-05 23:24 | 26.18561 | 52.37994 | 35764 ft | 452 kts | 291° |
| 2026-05-05 23:24 | 26.21389 | 52.31736 | 35754 ft | 452 kts | 291° |
| 2026-05-05 23:25 | 26.23700 | 52.26521 | 35753 ft | 451 kts | 290° |
| 2026-05-05 23:25 | 26.26413 | 52.20217 | 35753 ft | 451 kts | 290° |
| 2026-05-05 23:26 | 26.29127 | 52.13920 | 35751 ft | 451 kts | 290° |
| 2026-05-05 23:26 | 26.31851 | 52.07618 | 35761 ft | 451 kts | 290° |
| 2026-05-05 23:27 | 26.34552 | 52.01312 | 35753 ft | 451 kts | 290° |
| 2026-05-05 23:27 | 26.37240 | 51.94994 | 35749 ft | 450 kts | 289° |
| 2026-05-05 23:28 | 26.39474 | 51.88532 | 35758 ft | 446 kts | 285° |
| 2026-05-05 23:28 | 26.41624 | 51.82035 | 35750 ft | 446 kts | 285° |
| 2026-05-05 23:29 | 26.43820 | 51.75553 | 35750 ft | 447 kts | 285° |
| 2026-05-05 23:29 | 26.45996 | 51.69113 | 35756 ft | 447 kts | 285° |
| 2026-05-05 23:30 | 26.48197 | 51.62629 | 35745 ft | 446 kts | 285° |
| 2026-05-05 23:30 | 26.50356 | 51.56152 | 35753 ft | 445 kts | 285° |
| 2026-05-05 23:31 | 26.52499 | 51.49670 | 35750 ft | 444 kts | 285° |
| 2026-05-05 23:31 | 26.54640 | 51.43200 | 35755 ft | 444 kts | 285° |
| 2026-05-05 23:32 | 26.56781 | 51.36727 | 35770 ft | 444 kts | 285° |
| 2026-05-05 23:32 | 26.58918 | 51.30256 | 35760 ft | 444 kts | 284° |
| 2026-05-05 23:33 | 26.61054 | 51.23794 | 35751 ft | 443 kts | 284° |
| 2026-05-05 23:33 | 26.63186 | 51.17342 | 35755 ft | 442 kts | 284° |
| 2026-05-05 23:34 | 26.65312 | 51.10895 | 35751 ft | 442 kts | 284° |
| 2026-05-05 23:34 | 26.67418 | 51.04496 | 35757 ft | 441 kts | 284° |
| 2026-05-05 23:35 | 26.69538 | 50.98012 | 35767 ft | 441 kts | 284° |
| 2026-05-05 23:35 | 26.71607 | 50.91561 | 35761 ft | 440 kts | 284° |
| 2026-05-05 23:36 | 26.73654 | 50.85161 | 35758 ft | 439 kts | 284° |
| 2026-05-05 23:36 | 26.75710 | 50.78738 | 35759 ft | 438 kts | 284° |
| 2026-05-05 23:37 | 26.77761 | 50.72325 | 35762 ft | 438 kts | 284° |
| 2026-05-05 23:37 | 26.80279 | 50.66076 | 35771 ft | 445 kts | 292° |
| 2026-05-05 23:38 | 26.83641 | 50.60204 | 35767 ft | 453 kts | 300° |
| 2026-05-05 23:38 | 26.87666 | 50.54739 | 35778 ft | 455 kts | 302° |
| 2026-05-05 23:39 | 26.91698 | 50.49270 | 35774 ft | 456 kts | 302° |
| 2026-05-05 23:39 | 26.96019 | 50.44017 | 35783 ft | 460 kts | 305° |
| 2026-05-05 23:40 | 27.00431 | 50.38827 | 35790 ft | 460 kts | 305° |
| 2026-05-05 23:40 | 27.04820 | 50.33604 | 35781 ft | 460 kts | 304° |
| 2026-05-05 23:41 | 27.09183 | 50.28351 | 35783 ft | 460 kts | 304° |
| 2026-05-05 23:41 | 27.13511 | 50.23128 | 35796 ft | 459 kts | 304° |
| 2026-05-05 23:42 | 27.18203 | 50.18163 | 35785 ft | 471 kts | 313° |
| 2026-05-05 23:42 | 27.23515 | 50.13813 | 35792 ft | 472 kts | 315° |
| 2026-05-05 23:43 | 27.28821 | 50.09465 | 35789 ft | 472 kts | 314° |
| 2026-05-05 23:43 | 27.34096 | 50.05086 | 35789 ft | 471 kts | 314° |
| 2026-05-05 23:44 | 27.39327 | 50.00658 | 35791 ft | 469 kts | 313° |
| 2026-05-05 23:44 | 27.44466 | 49.96121 | 35792 ft | 469 kts | 313° |
| 2026-05-05 23:45 | 27.49599 | 49.91575 | 35822 ft | 470 kts | 312° |
| 2026-05-05 23:45 | 27.54751 | 49.87034 | 35804 ft | 470 kts | 313° |
| 2026-05-05 23:46 | 27.59908 | 49.82493 | 35802 ft | 470 kts | 313° |
| 2026-05-05 23:46 | 27.65063 | 49.77949 | 35799 ft | 470 kts | 312° |
| 2026-05-05 23:47 | 27.70212 | 49.73402 | 35808 ft | 470 kts | 312° |
| 2026-05-05 23:47 | 27.75354 | 49.68856 | 35797 ft | 470 kts | 312° |
| 2026-05-05 23:48 | 27.80492 | 49.64300 | 35808 ft | 469 kts | 312° |
| 2026-05-05 23:48 | 27.85577 | 49.59753 | 35811 ft | 469 kts | 311° |
| 2026-05-05 23:49 | 27.90692 | 49.55171 | 35809 ft | 469 kts | 311° |
| 2026-05-05 23:49 | 27.95805 | 49.50588 | 35794 ft | 469 kts | 311° |
| 2026-05-05 23:50 | 28.00922 | 49.45998 | 35796 ft | 470 kts | 311° |
| 2026-05-05 23:50 | 28.06038 | 49.41383 | 35810 ft | 470 kts | 311° |
| 2026-05-05 23:51 | 28.11131 | 49.36736 | 35807 ft | 470 kts | 311° |
| 2026-05-05 23:51 | 28.16222 | 49.32086 | 35808 ft | 470 kts | 311° |
| 2026-05-05 23:52 | 28.21316 | 49.27433 | 35815 ft | 470 kts | 311° |
| 2026-05-05 23:52 | 28.26407 | 49.22780 | 35816 ft | 470 kts | 310° |
| 2026-05-05 23:53 | 28.31473 | 49.18116 | 35810 ft | 468 kts | 310° |
| 2026-05-05 23:53 | 28.36490 | 49.13478 | 35835 ft | 467 kts | 310° |
| 2026-05-05 23:54 | 28.41652 | 49.08954 | 35812 ft | 473 kts | 315° |
| 2026-05-05 23:54 | 28.47132 | 49.04794 | 35819 ft | 473 kts | 315° |
| 2026-05-05 23:55 | 28.52614 | 49.00645 | 35842 ft | 473 kts | 315° |
| 2026-05-05 23:55 | 28.58068 | 48.96478 | 35826 ft | 472 kts | 315° |
| 2026-05-05 23:56 | 28.63510 | 48.92301 | 35818 ft | 471 kts | 315° |
| 2026-05-05 23:56 | 28.68943 | 48.88124 | 35819 ft | 471 kts | 315° |
| 2026-05-05 23:57 | 28.74369 | 48.83948 | 35829 ft | 471 kts | 315° |
| 2026-05-05 23:57 | 28.79753 | 48.79802 | 35820 ft | 470 kts | 315° |
| 2026-05-05 23:58 | 28.85170 | 48.75640 | 35824 ft | 469 kts | 315° |
| 2026-05-05 23:58 | 28.90584 | 48.71489 | 35829 ft | 469 kts | 314° |
| 2026-05-05 23:59 | 28.95982 | 48.67343 | 35825 ft | 467 kts | 314° |
| 2026-05-05 23:59 | 29.01363 | 48.63203 | 35832 ft | 466 kts | 314° |
| 2026-05-06 00:00 | 29.06730 | 48.59067 | 35831 ft | 465 kts | 314° |
| 2026-05-06 00:00 | 29.12089 | 48.54930 | 35815 ft | 464 kts | 314° |
| 2026-05-06 00:01 | 29.17439 | 48.50794 | 35831 ft | 464 kts | 314° |
| 2026-05-06 00:01 | 29.22794 | 48.46651 | 35838 ft | 465 kts | 314° |
| 2026-05-06 00:02 | 29.28148 | 48.42503 | 35829 ft | 465 kts | 314° |
| 2026-05-06 00:02 | 29.33505 | 48.38347 | 35832 ft | 465 kts | 314° |
| 2026-05-06 00:03 | 29.38858 | 48.34190 | 35847 ft | 465 kts | 314° |
| 2026-05-06 00:03 | 29.44241 | 48.30053 | 35837 ft | 469 kts | 317° |
| 2026-05-06 00:04 | 29.49928 | 48.26276 | 35839 ft | 473 kts | 319° |
| 2026-05-06 00:04 | 29.55662 | 48.22557 | 35865 ft | 473 kts | 319° |
| 2026-05-06 00:05 | 29.64222 | 48.16947 | 35848 ft | 474 kts | 319° |
| 2026-05-06 00:06 | 29.69954 | 48.13166 | 35852 ft | 475 kts | 319° |
| 2026-05-06 00:06 | 29.75693 | 48.09373 | 35866 ft | 476 kts | 319° |
| 2026-05-06 00:07 | 29.81445 | 48.05569 | 35860 ft | 477 kts | 319° |
| 2026-05-06 00:07 | 29.87198 | 48.01761 | 35858 ft | 477 kts | 319° |
| 2026-05-06 00:08 | 29.92955 | 47.97943 | 35861 ft | 477 kts | 319° |
| 2026-05-06 00:08 | 29.98683 | 47.94089 | 35864 ft | 471 kts | 315° |
| 2026-05-06 00:09 | 30.03726 | 47.89498 | 35871 ft | 455 kts | 306° |
| 2026-05-06 00:09 | 30.07947 | 47.84270 | 35883 ft | 445 kts | 300° |
| 2026-05-06 00:10 | 30.11969 | 47.78845 | 35885 ft | 445 kts | 300° |
| 2026-05-06 00:10 | 30.16003 | 47.73416 | 35886 ft | 445 kts | 300° |
| 2026-05-06 00:11 | 30.20048 | 47.67998 | 35901 ft | 445 kts | 300° |
| 2026-05-06 00:11 | 30.24100 | 47.62575 | 35895 ft | 445 kts | 300° |
| 2026-05-06 00:12 | 30.28150 | 47.57149 | 35883 ft | 446 kts | 300° |
| 2026-05-06 00:12 | 30.32201 | 47.51711 | 35900 ft | 447 kts | 300° |
| 2026-05-06 00:13 | 30.36266 | 47.46247 | 35899 ft | 448 kts | 300° |
| 2026-05-06 00:13 | 30.40336 | 47.40768 | 35896 ft | 449 kts | 300° |
| 2026-05-06 00:14 | 30.43729 | 47.36197 | 35894 ft | 450 kts | 300° |
| 2026-05-06 00:14 | 30.47839 | 47.30651 | 35919 ft | 451 kts | 300° |
| 2026-05-06 00:15 | 30.51930 | 47.25122 | 35913 ft | 452 kts | 300° |
| 2026-05-06 00:15 | 30.56023 | 47.19585 | 35903 ft | 452 kts | 300° |
| 2026-05-06 00:16 | 30.60088 | 47.14076 | 35908 ft | 452 kts | 300° |
| 2026-05-06 00:16 | 30.64178 | 47.08522 | 35910 ft | 452 kts | 300° |
| 2026-05-06 00:17 | 30.68258 | 47.02973 | 35914 ft | 452 kts | 300° |
| 2026-05-06 00:17 | 30.72337 | 46.97417 | 35914 ft | 451 kts | 300° |
| 2026-05-06 00:18 | 30.76412 | 46.91857 | 35924 ft | 452 kts | 300° |
| 2026-05-06 00:18 | 30.80487 | 46.86292 | 35917 ft | 452 kts | 300° |
| 2026-05-06 00:19 | 30.84556 | 46.80726 | 35912 ft | 451 kts | 300° |
| 2026-05-06 00:19 | 30.88622 | 46.75155 | 35927 ft | 452 kts | 300° |
| 2026-05-06 00:20 | 30.92686 | 46.69579 | 35919 ft | 451 kts | 300° |
| 2026-05-06 00:20 | 30.96744 | 46.64005 | 35916 ft | 451 kts | 300° |
| 2026-05-06 00:21 | 31.00799 | 46.58427 | 35936 ft | 451 kts | 300° |
| 2026-05-06 00:21 | 31.04819 | 46.52887 | 35919 ft | 450 kts | 300° |
| 2026-05-06 00:22 | 31.08857 | 46.47315 | 35925 ft | 450 kts | 300° |
| 2026-05-06 00:22 | 31.12891 | 46.41740 | 35953 ft | 449 kts | 300° |
| 2026-05-06 00:23 | 31.16920 | 46.36164 | 35926 ft | 449 kts | 300° |
| 2026-05-06 00:23 | 31.21063 | 46.30667 | 35933 ft | 455 kts | 304° |
| 2026-05-06 00:24 | 31.25872 | 46.25721 | 35972 ft | 462 kts | 308° |
| 2026-05-06 00:24 | 31.30783 | 46.20848 | 35942 ft | 463 kts | 308° |
| 2026-05-06 00:25 | 31.35678 | 46.15959 | 35950 ft | 462 kts | 308° |